Terminal Aerodrome Forecast
Issued by NWS Tampa Bay Area, FL

Home | Current Version | Previous Version | Text Only | Print | Product List | Glossary Off
Versions: 1 2 3 4 5 6 7 8 9 10 11 12

000
FTUS42 KTBW 302300
TAFFMY
TAF
KFMY 302330Z 3100/3124 29005KT P6SM VCSH SCT030 BKN050
     FM311100 VRB03KT P6SM VCSH SCT030 BKN250
     FM311200 36004KT P6SM FEW040 SCT250
     FM311600 33008KT P6SM SCT250
     FM311900 30013KT P6SM FEW250=

USA.gov is the U.S. government's official web portal to all federal, state and local government web resources and services.